Time;durP1;ratioP1;P1;durP2;ratioP2;P2;SDS_P1;SDS_P2;PMS_P1;PMS_P2;Temp;Humidity;BMP_temperature;BMP_pressure;BME280_temperature;BME280_humidity;BME280_pressure;Samples;Min_cycle;Max_cycle;Signal;HPM_P1;HPM_P2
2021/06/07 00:01:26;;;;;;;3.60;2.88;;;;;;;20.45;77.21;101329.84;5074861;28;20029;-85
2021/06/07 00:03:52;;;;;;;4.70;2.97;;;;;;;20.54;76.67;101335.13;5056750;28;20035;-85
2021/06/07 00:06:18;;;;;;;4.05;3.35;;;;;;;20.52;76.31;101333.59;5071797;28;20024;-85
2021/06/07 00:08:44;;;;;;;3.30;2.70;;;;;;;20.49;76.29;101329.38;5054372;28;20032;-85
2021/06/07 00:11:11;;;;;;;2.58;2.35;;;;;;;20.53;75.76;101325.44;5054380;28;20582;-85
2021/06/07 00:13:39;;;;;;;4.57;2.40;;;;;;;20.43;75.94;101324.63;5054620;28;20020;-85
2021/06/07 00:16:05;;;;;;;3.70;2.47;;;;;;;20.35;76.23;101330.69;5054510;28;20433;-85
2021/06/07 00:18:31;;;;;;;2.35;2.10;;;;;;;20.35;76.03;101328.03;5054738;28;20360;-85
2021/06/07 00:21:10;;;;;;;3.30;2.45;;;;;;;20.17;76.66;101324.44;5055736;28;20036;-85
2021/06/07 00:23:37;;;;;;;3.03;2.30;;;;;;;20.18;77.03;101321.66;5054352;28;20534;-85
2021/06/07 00:26:04;;;;;;;2.95;2.17;;;;;;;20.24;76.32;101320.22;5054331;28;20117;-85
2021/06/07 00:28:30;;;;;;;2.25;2.05;;;;;;;20.25;76.11;101321.06;5054138;28;20032;-85
2021/06/07 00:30:56;;;;;;;3.53;2.28;;;;;;;20.06;76.85;101317.44;5054032;28;20036;-85
2021/06/07 00:33:22;;;;;;;2.95;2.35;;;;;;;20.04;77.18;101323.91;5053382;28;20039;-85
2021/06/07 00:35:47;;;;;;;2.78;2.50;;;;;;;20.15;76.44;101323.75;5053915;28;20033;-85
2021/06/07 00:38:13;;;;;;;2.20;1.90;;;;;;;20.21;76.17;101324.00;5053816;28;20057;-85
2021/06/07 00:40:39;;;;;;;2.42;2.00;;;;;;;20.21;76.57;101326.66;5053785;28;20026;-85
2021/06/07 00:43:05;;;;;;;3.30;2.40;;;;;;;20.20;76.47;101324.16;5054000;28;20040;-85
2021/06/07 00:45:35;;;;;;;2.65;2.30;;;;;;;20.26;76.46;101320.06;5054144;28;20104;-85
2021/06/07 00:48:03;;;;;;;2.97;2.63;;;;;;;20.28;76.10;101320.75;5056991;28;20028;-85
2021/06/07 00:50:32;;;;;;;3.00;2.60;;;;;;;20.24;77.79;101320.22;5073685;28;20474;-85
2021/06/07 00:53:01;;;;;;;2.90;2.40;;;;;;;20.25;77.21;101313.91;5073645;28;20029;-85
2021/06/07 00:55:36;;;;;;;2.45;2.10;;;;;;;20.03;77.98;101309.75;5073761;28;20025;-85
2021/06/07 00:58:03;;;;;;;3.17;2.00;;;;;;;20.09;78.62;101311.00;5073575;28;20021;-85
2021/06/07 01:00:29;;;;;;;2.17;1.75;;;;;;;20.19;78.09;101312.66;5073464;28;20024;-85
2021/06/07 01:02:56;;;;;;;2.67;2.22;;;;;;;20.23;78.13;101315.88;5068823;28;20025;-85
2021/06/07 01:05:22;;;;;;;2.50;1.88;;;;;;;20.24;76.93;101311.38;5035373;28;20029;-85
2021/06/07 01:07:47;;;;;;;2.65;2.08;;;;;;;20.19;77.77;101301.16;5053184;28;20107;-85
2021/06/07 01:10:13;;;;;;;2.30;1.70;;;;;;;20.21;77.37;101310.69;5053196;28;20021;-85
2021/06/07 01:12:39;;;;;;;2.45;1.98;;;;;;;20.15;77.48;101305.94;5053467;28;20036;-85
2021/06/07 01:15:07;;;;;;;4.13;2.35;;;;;;;20.10;77.85;101300.19;5053080;28;20020;-85
2021/06/07 01:17:33;;;;;;;1.83;1.73;;;;;;;20.05;78.22;101299.78;5055724;28;20067;-85
2021/06/07 01:19:58;;;;;;;2.22;1.92;;;;;;;20.05;78.08;101302.44;5060249;28;20028;-85
2021/06/07 01:22:24;;;;;;;2.28;2.08;;;;;;;20.12;77.76;101305.38;5073047;28;20025;-85
2021/06/07 01:24:49;;;;;;;2.78;1.85;;;;;;;20.11;77.72;101299.19;5072891;28;20025;-85
2021/06/07 01:27:15;;;;;;;2.90;2.28;;;;;;;20.11;77.68;101301.88;5072884;28;20103;-85
2021/06/07 01:29:40;;;;;;;3.08;2.20;;;;;;;20.10;77.22;101302.88;5073058;28;20036;-85
2021/06/07 01:32:06;;;;;;;2.92;2.63;;;;;;;19.87;77.53;101301.53;5072953;28;20056;-85
2021/06/07 01:34:34;;;;;;;4.25;3.10;;;;;;;19.96;76.45;101293.50;5061028;28;20039;-85
2021/06/07 01:36:59;;;;;;;4.43;3.35;;;;;;;19.93;75.88;101291.13;5072769;28;20028;-85
2021/06/07 01:39:27;;;;;;;4.90;3.47;;;;;;;19.95;75.68;101293.63;5072664;28;20382;-84
2021/06/07 01:41:56;;;;;;;6.22;3.92;;;;;;;19.93;75.94;101291.13;5072614;28;20402;-85
2021/06/07 01:44:22;;;;;;;5.03;3.50;;;;;;;19.88;76.29;101292.53;5072712;28;20035;-85
2021/06/07 01:46:47;;;;;;;4.65;2.97;;;;;;;19.92;75.54;101283.25;5072540;28;20025;-85
2021/06/07 01:49:13;;;;;;;4.00;3.60;;;;;;;19.93;74.79;101290.28;5071835;28;20060;-84
2021/06/07 01:51:39;;;;;;;4.15;3.53;;;;;;;19.85;74.55;101293.66;5072455;28;20020;-84
2021/06/07 01:54:04;;;;;;;5.25;3.40;;;;;;;19.82;74.22;101293.94;5072636;28;20017;-85
2021/06/07 01:56:30;;;;;;;4.45;3.03;;;;;;;19.85;74.19;101290.16;5072448;28;20028;-85
2021/06/07 01:58:55;;;;;;;3.35;3.00;;;;;;;19.84;73.13;101291.13;5056328;28;20099;-85
2021/06/07 02:01:22;;;;;;;4.57;3.00;;;;;;;19.76;71.78;101284.69;5052161;28;20064;-85
2021/06/07 02:03:48;;;;;;;3.80;2.50;;;;;;;19.74;71.05;101283.97;5052086;28;20064;-85
2021/06/07 02:06:20;;;;;;;2.45;2.25;;;;;;;19.79;70.97;101295.06;5058655;28;20029;-84
2021/06/07 02:08:46;;;;;;;3.13;2.05;;;;;;;19.88;70.63;101287.19;5072526;28;20094;-84
2021/06/07 02:11:14;;;;;;;2.10;1.65;;;;;;;19.99;70.32;101295.03;5072301;28;20036;-84
2021/06/07 02:13:41;;;;;;;2.25;1.55;;;;;;;19.99;70.14;101290.53;5071748;28;20028;-84
2021/06/07 02:16:13;;;;;;;2.22;1.80;;;;;;;19.98;69.61;101288.88;5072132;28;20025;-85
2021/06/07 02:18:38;;;;;;;2.25;1.60;;;;;;;19.94;69.69;101286.63;5072259;28;20032;-85
2021/06/07 02:21:06;;;;;;;3.40;2.10;;;;;;;19.87;70.24;101290.84;5065015;28;20027;-84
2021/06/07 02:23:31;;;;;;;3.88;2.60;;;;;;;19.83;70.48;101287.63;5052217;28;20028;-85
2021/06/07 02:25:57;;;;;;;4.63;2.28;;;;;;;19.71;70.71;101286.94;5051941;28;20025;-85
2021/06/07 02:28:24;;;;;;;2.60;1.80;;;;;;;19.38;71.27;101291.69;5051976;28;20035;-85
2021/06/07 02:30:50;;;;;;;2.22;1.83;;;;;;;19.48;70.26;101296.19;5051784;28;20025;-85
2021/06/07 02:33:16;;;;;;;2.75;1.50;;;;;;;19.56;70.44;101294.50;5051980;28;20038;-85
2021/06/07 02:35:42;;;;;;;3.60;1.58;;;;;;;19.54;69.78;101300.94;5057191;28;20035;-85
2021/06/07 02:38:08;;;;;;;3.65;1.88;;;;;;;19.33;69.84;101293.09;5061831;28;20387;-85
2021/06/07 02:40:34;;;;;;;7.72;2.13;;;;;;;19.15;69.20;101295.59;5051743;28;20028;-85
2021/06/07 02:43:00;;;;;;;4.47;2.03;;;;;;;19.12;69.28;101301.22;5051605;28;20017;-85
2021/06/07 02:45:27;;;;;;;3.42;2.00;;;;;;;19.03;69.34;101300.22;5052101;28;20039;-84
2021/06/07 02:47:57;;;;;;;4.53;1.80;;;;;;;18.87;70.71;101302.56;5051901;28;20378;-85
2021/06/07 02:50:26;;;;;;;4.68;1.80;;;;;;;18.92;71.08;101295.03;5052038;28;20095;-85
2021/06/07 02:52:53;;;;;;;2.78;1.60;;;;;;;19.08;70.13;101307.81;5069920;28;20135;-85
2021/06/07 02:55:22;;;;;;;6.47;2.15;;;;;;;19.10;69.73;101304.00;5071702;28;20103;-85
2021/06/07 02:57:49;;;;;;;4.95;2.13;;;;;;;19.06;70.38;101307.94;5071592;28;20025;-85
2021/06/07 03:00:19;;;;;;;7.30;1.77;;;;;;;19.10;70.16;101301.34;5071624;28;20021;-85
2021/06/07 03:02:45;;;;;;;4.57;1.85;;;;;;;19.10;70.81;101311.16;5071700;28;20020;-84
2021/06/07 03:05:11;;;;;;;3.50;1.80;;;;;;;19.14;70.02;101309.91;5071532;28;20024;-85
2021/06/07 03:07:36;;;;;;;3.47;1.80;;;;;;;19.01;71.14;101313.66;5041822;28;20029;-85
2021/06/07 03:10:05;;;;;;;7.43;2.10;;;;;;;18.86;71.52;101315.03;5051599;28;20445;-84
2021/06/07 03:12:31;;;;;;;5.72;2.25;;;;;;;18.81;71.97;101315.44;5051586;28;20071;-84
2021/06/07 03:14:56;;;;;;;3.30;2.03;;;;;;;18.75;73.33;101315.09;5051712;28;20379;-84
2021/06/07 03:17:22;;;;;;;3.45;1.80;;;;;;;18.69;73.62;101307.66;5051572;28;20021;-85
2021/06/07 03:19:47;;;;;;;4.28;1.88;;;;;;;18.74;73.29;101316.06;5051599;28;20060;-85
2021/06/07 03:22:13;;;;;;;4.07;2.00;;;;;;;18.51;73.77;101305.63;5067125;28;20470;-85
2021/06/07 03:24:38;;;;;;;4.55;2.38;;;;;;;18.42;74.88;101304.63;5071325;28;20068;-84
2021/06/07 03:27:05;;;;;;;3.40;2.03;;;;;;;18.51;73.66;101302.97;5075062;28;20090;-85
2021/06/07 03:29:30;;;;;;;3.75;1.83;;;;;;;18.49;74.04;101304.94;5075078;28;20048;-84
2021/06/07 03:31:56;;;;;;;4.40;2.55;;;;;;;18.34;75.12;101300.94;5075145;28;20029;-84
2021/06/07 03:34:21;;;;;;;3.42;2.10;;;;;;;18.32;75.86;101303.72;5075149;28;20060;-84
2021/06/07 03:36:46;;;;;;;4.70;2.28;;;;;;;18.33;75.69;101316.06;5059978;28;20025;-85
2021/06/07 03:39:12;;;;;;;4.55;2.45;;;;;;;18.27;75.80;101311.28;5054671;28;20036;-85
2021/06/07 03:41:37;;;;;;;6.60;2.38;;;;;;;18.24;75.47;101300.91;5054844;28;20036;-84
2021/06/07 03:44:03;;;;;;;4.43;2.30;;;;;;;18.13;75.73;101296.50;5054750;28;20025;-84
2021/06/07 03:46:29;;;;;;;6.00;2.20;;;;;;;18.11;76.34;101302.91;5055043;28;20025;-85
2021/06/07 03:48:54;;;;;;;3.85;2.08;;;;;;;17.89;76.02;101298.59;5054853;28;20017;-84
2021/06/07 03:51:19;;;;;;;3.80;1.90;;;;;;;17.78;77.48;101305.63;5054771;28;20021;-84
2021/06/07 03:53:45;;;;;;;7.78;2.72;;;;;;;17.78;76.90;101299.47;5070505;28;20482;-84
2021/06/07 03:56:10;;;;;;;7.30;1.88;;;;;;;17.79;75.53;101299.34;5074744;28;20059;-84
2021/06/07 03:58:35;;;;;;;3.92;1.98;;;;;;;17.84;76.65;101299.00;5074792;28;20107;-84
2021/06/07 04:01:01;;;;;;;6.18;2.10;;;;;;;17.76;76.57;101296.94;5073024;28;20020;-84
2021/06/07 04:03:26;;;;;;;5.20;2.42;;;;;;;17.78;76.92;101292.34;5074364;28;20501;-84
2021/06/07 04:05:52;;;;;;;5.25;2.25;;;;;;;17.78;76.84;101292.34;5056607;28;20466;-84
2021/06/07 04:08:17;;;;;;;4.60;2.03;;;;;;;17.82;77.05;101291.13;5074641;28;20021;-85
2021/06/07 04:10:46;;;;;;;5.65;2.20;;;;;;;17.87;77.29;101289.91;5074298;28;20497;-84
2021/06/07 04:13:11;;;;;;;6.68;2.95;;;;;;;17.91;76.89;101291.34;5074545;28;20033;-84
2021/06/07 04:15:37;;;;;;;4.90;2.53;;;;;;;17.93;77.53;101281.41;5068073;28;20029;-84
2021/06/07 04:18:02;;;;;;;5.70;2.10;;;;;;;17.86;77.38;101281.09;5054365;28;20029;-85
2021/06/07 04:20:30;;;;;;;4.32;2.63;;;;;;;17.92;77.05;101293.88;5054284;28;20021;-84
2021/06/07 04:22:56;;;;;;;4.35;2.00;;;;;;;17.83;77.47;101290.19;5054085;28;20017;-85
2021/06/07 04:25:23;;;;;;;5.70;1.90;;;;;;;17.88;76.63;101288.94;5071511;28;20090;-84
2021/06/07 04:27:49;;;;;;;9.07;3.35;;;;;;;17.83;76.82;101292.84;5074211;28;20498;-85
2021/06/07 04:30:17;;;;;;;4.78;2.55;;;;;;;17.72;77.24;101284.91;5074225;28;20024;-85
2021/06/07 04:32:43;;;;;;;5.45;2.63;;;;;;;17.68;77.43;101287.94;5074194;28;20432;-85
2021/06/07 04:35:12;;;;;;;5.97;2.30;;;;;;;17.68;77.66;101280.81;5074002;28;20031;-85
2021/06/07 04:37:50;;;;;;;4.72;1.80;;;;;;;17.72;77.66;101279.59;5073670;28;20039;-84
2021/06/07 04:40:20;;;;;;;3.13;2.45;;;;;;;17.66;77.38;101282.75;5057266;28;20487;-84
2021/06/07 04:42:46;;;;;;;5.22;3.10;;;;;;;17.55;79.30;101291.59;5073782;28;20048;-84
2021/06/07 04:45:14;;;;;;;4.55;2.17;;;;;;;17.68;78.36;101299.41;5073907;28;20422;-84
2021/06/07 04:47:39;;;;;;;5.97;3.13;;;;;;;17.56;78.77;101301.28;5073792;28;20020;-84
2021/06/07 04:50:07;;;;;;;5.53;3.25;;;;;;;17.47;79.79;101298.53;5073562;28;20021;-84
2021/06/07 04:52:35;;;;;;;7.53;2.70;;;;;;;17.51;80.19;101300.81;5073761;28;20056;-84
2021/06/07 04:55:00;;;;;;;6.18;3.03;;;;;;;17.76;78.34;101301.44;5059089;28;20644;-84
2021/06/07 04:57:25;;;;;;;4.93;3.17;;;;;;;17.93;77.67;101305.31;5053668;28;20025;-84
2021/06/07 04:59:51;;;;;;;5.38;2.72;;;;;;;17.99;77.61;101302.16;5035756;28;20400;-84
2021/06/07 05:02:16;;;;;;;9.13;4.88;;;;;;;18.02;78.18;101301.91;5053490;28;20060;-84
2021/06/07 05:04:42;;;;;;;10.00;3.95;;;;;;;18.07;77.57;101310.34;5053330;28;20033;-84
2021/06/07 05:07:07;;;;;;;5.82;3.25;;;;;;;18.00;78.55;101310.00;5053663;28;20541;-84
2021/06/07 05:09:32;;;;;;;6.13;3.42;;;;;;;18.07;77.99;101313.00;5065510;28;20451;-84
2021/06/07 05:11:58;;;;;;;5.57;3.20;;;;;;;17.91;77.43;101312.59;5073281;28;20077;-85
2021/06/07 05:14:23;;;;;;;6.68;3.00;;;;;;;17.86;78.59;101314.81;5073310;28;20059;-85
2021/06/07 05:16:49;;;;;;;7.30;3.63;;;;;;;17.91;78.18;101317.91;5073236;28;20123;-84
2021/06/07 05:19:14;;;;;;;13.10;5.20;;;;;;;17.92;78.31;101311.63;5072953;28;20032;-84
2021/06/07 05:21:39;;;;;;;10.80;4.10;;;;;;;17.92;79.53;101311.63;5072962;28;20303;-84
2021/06/07 05:24:06;;;;;;;7.75;4.15;;;;;;;18.05;78.94;101317.59;5062174;28;20036;-84
2021/06/07 05:26:31;;;;;;;10.45;4.88;;;;;;;18.09;78.44;101313.69;5053014;28;20052;-84
2021/06/07 05:28:56;;;;;;;6.30;3.97;;;;;;;18.18;78.16;101312.88;5053001;28;20463;-85
2021/06/07 05:31:24;;;;;;;9.77;4.60;;;;;;;18.29;78.32;101316.47;5054450;28;20057;-85
2021/06/07 05:33:50;;;;;;;11.57;4.00;;;;;;;18.44;77.48;101312.47;5055020;28;20025;-85
2021/06/07 05:36:15;;;;;;;11.52;4.43;;;;;;;18.47;77.63;101311.38;5053636;28;20039;-85
2021/06/07 05:38:41;;;;;;;8.07;4.10;;;;;;;18.70;77.24;101314.66;5061391;28;20036;-86
2021/06/07 05:41:06;;;;;;;8.60;4.30;;;;;;;18.86;75.98;101317.69;5072700;28;20026;-86
2021/06/07 05:43:31;;;;;;;7.60;3.90;;;;;;;19.02;75.00;101312.69;5072711;28;20550;-86
2021/06/07 05:45:56;;;;;;;10.30;4.20;;;;;;;19.10;74.94;101309.34;5072660;28;20021;-86
2021/06/07 05:48:22;;;;;;;4.85;3.33;;;;;;;19.20;75.23;101309.34;5071924;28;20020;-85
2021/06/07 05:50:47;;;;;;;7.78;4.22;;;;;;;19.00;75.25;101313.81;5072351;28;20024;-85
2021/06/07 05:53:14;;;;;;;9.73;4.60;;;;;;;19.28;73.81;101309.50;5061615;28;20033;-85
2021/06/07 05:55:42;;;;;;;6.68;4.18;;;;;;;19.55;71.68;101310.59;5034209;28;20481;-85
2021/06/07 05:58:11;;;;;;;7.40;4.13;;;;;;;19.79;71.66;101316.38;5052243;28;20033;-85
2021/06/07 06:00:39;;;;;;;7.35;3.30;;;;;;;19.86;70.65;101321.97;5052064;28;20025;-85
2021/06/07 06:03:06;;;;;;;9.48;4.20;;;;;;;19.91;69.06;101321.56;5051947;28;20023;-86
2021/06/07 06:05:31;;;;;;;13.48;5.03;;;;;;;19.96;70.41;101325.50;5052534;28;20021;-87
2021/06/07 06:07:57;;;;;;;7.93;4.47;;;;;;;20.01;69.89;101325.88;5051979;28;20428;-85
2021/06/07 06:10:22;;;;;;;6.53;4.13;;;;;;;20.03;68.56;101317.75;5052029;28;20035;-85
2021/06/07 06:12:48;;;;;;;7.35;4.70;;;;;;;19.99;69.36;101319.84;5052026;28;20083;-86
2021/06/07 06:15:16;;;;;;;6.75;3.78;;;;;;;20.16;69.07;101322.75;5050023;28;20103;-85
2021/06/07 06:17:42;;;;;;;9.35;4.50;;;;;;;20.13;69.79;101325.72;5052044;28;20037;-85
2021/06/07 06:20:08;;;;;;;8.57;4.38;;;;;;;20.10;67.87;101337.53;5051893;28;20017;-85
2021/06/07 06:22:34;;;;;;;7.35;3.67;;;;;;;20.17;68.76;101333.28;5051600;28;20162;-85
2021/06/07 06:24:59;;;;;;;9.80;3.95;;;;;;;20.15;68.54;101343.25;5051155;28;20017;-85
2021/06/07 06:27:25;;;;;;;5.30;3.00;;;;;;;20.25;68.79;101343.22;5051756;28;20432;-85
2021/06/07 06:29:50;;;;;;;6.55;3.47;;;;;;;20.36;68.26;101344.91;5051174;28;20032;-85
2021/06/07 06:32:16;;;;;;;6.05;3.40;;;;;;;20.57;67.81;101347.34;5051713;28;20123;-85
2021/06/07 06:34:42;;;;;;;7.57;3.78;;;;;;;20.56;67.94;101341.16;5051587;28;20833;-85
2021/06/07 06:37:09;;;;;;;5.95;3.75;;;;;;;20.47;68.06;101346.53;5051638;28;20509;-85
2021/06/07 06:39:34;;;;;;;6.95;4.43;;;;;;;19.83;69.89;101353.41;5053336;28;20021;-86
2021/06/07 06:42:00;;;;;;;9.48;4.10;;;;;;;20.21;70.05;101353.34;5071652;28;20032;-85
2021/06/07 06:44:26;;;;;;;6.45;3.30;;;;;;;20.47;68.22;101363.38;5058163;28;20035;-85
2021/06/07 06:46:51;;;;;;;6.88;4.15;;;;;;;20.51;67.06;101362.09;5051131;28;20025;-86
2021/06/07 06:49:17;;;;;;;7.60;4.15;;;;;;;20.33;67.38;101361.19;5051013;28;20028;-86
2021/06/07 06:51:43;;;;;;;5.45;3.78;;;;;;;20.30;68.42;101361.44;5051514;28;20389;-86
2021/06/07 06:54:09;;;;;;;11.15;4.63;;;;;;;20.18;68.85;101363.44;5051471;28;20032;-86
2021/06/07 06:56:34;;;;;;;6.45;4.45;;;;;;;20.12;69.25;101372.88;5050612;28;20104;-84
2021/06/07 06:59:00;;;;;;;6.88;4.05;;;;;;;19.97;69.68;101374.31;5051381;28;20128;-86
2021/06/07 07:01:26;;;;;;;6.95;4.38;;;;;;;19.72;70.35;101370.38;5055549;28;20348;-85
2021/06/07 07:03:52;;;;;;;11.32;5.18;;;;;;;19.85;70.60;101359.44;5055269;28;20029;-86
2021/06/07 07:06:18;;;;;;;9.32;3.45;;;;;;;20.09;69.56;101369.66;5055377;28;20021;-86
2021/06/07 07:08:44;;;;;;;7.05;3.40;;;;;;;20.25;68.45;101369.91;5054813;28;20025;-86
2021/06/07 07:11:11;;;;;;;6.10;3.80;;;;;;;20.33;67.55;101358.50;5055201;28;20493;-85
2021/06/07 07:13:36;;;;;;;25.85;6.28;;;;;;;20.09;69.01;101361.66;5060042;28;20029;-84
2021/06/07 07:16:02;;;;;;;17.33;4.90;;;;;;;20.08;69.55;101367.97;5055328;28;20366;-86
2021/06/07 07:18:28;;;;;;;5.25;2.78;;;;;;;20.32;67.78;101363.00;5055432;28;20443;-86
2021/06/07 07:20:53;;;;;;;7.25;3.25;;;;;;;20.24;68.14;101364.69;5055099;28;20021;-86
2021/06/07 07:23:19;;;;;;;8.52;3.17;;;;;;;20.46;68.00;101372.38;5054857;28;20029;-86
2021/06/07 07:25:47;;;;;;;14.20;4.28;;;;;;;20.52;67.77;101365.63;5054971;28;20104;-86
2021/06/07 07:28:12;;;;;;;8.50;3.40;;;;;;;19.65;71.07;101372.75;5055579;28;20025;-86
2021/06/07 07:30:38;;;;;;;5.40;3.00;;;;;;;20.00;70.53;101368.66;5059031;28;20055;-87
2021/06/07 07:33:05;;;;;;;6.35;2.88;;;;;;;19.80;70.15;101371.34;5055188;28;20463;-86
2021/06/07 07:35:31;;;;;;;6.43;3.20;;;;;;;20.21;68.43;101368.50;5053549;28;20041;-85
2021/06/07 07:37:56;;;;;;;4.50;2.95;;;;;;;20.47;68.63;101363.38;5054330;28;20051;-85
2021/06/07 07:40:23;;;;;;;5.45;3.15;;;;;;;20.81;66.88;101365.50;5053838;28;20025;-85
2021/06/07 07:42:50;;;;;;;5.57;2.40;;;;;;;21.37;64.46;101372.50;5060745;28;20033;-84
2021/06/07 07:45:18;;;;;;;7.47;2.28;;;;;;;21.74;62.91;101368.88;5035627;28;20078;-85
2021/06/07 07:47:44;;;;;;;4.55;2.70;;;;;;;21.66;62.47;101366.13;5054335;28;20025;-85
2021/06/07 07:50:20;;;;;;;5.50;2.65;;;;;;;22.00;61.25;101365.41;5061073;28;20043;-85
2021/06/07 07:52:46;;;;;;;3.95;2.72;;;;;;;21.78;60.67;101364.03;5074386;28;20027;-85
2021/06/07 07:55:19;;;;;;;5.95;2.53;;;;;;;21.92;60.46;101365.31;5064884;28;20024;-85
2021/06/07 07:57:46;;;;;;;3.63;2.50;;;;;;;22.30;59.20;101364.13;5054570;28;20028;-85
2021/06/07 08:00:13;;;;;;;3.05;1.80;;;;;;;22.39;59.19;101367.69;5054705;28;20413;-85
2021/06/07 08:02:39;;;;;;;10.45;3.10;;;;;;;22.46;58.69;101373.25;5054458;28;20025;-85
2021/06/07 08:05:06;;;;;;;29.77;4.80;;;;;;;22.55;58.42;101374.97;5059056;28;20584;-85
2021/06/07 08:07:32;;;;;;;5.63;3.35;;;;;;;22.55;56.95;101381.19;5062579;28;20398;-85
2021/06/07 08:09:58;;;;;;;4.28;3.20;;;;;;;22.56;56.65;101374.81;5036574;28;20480;-85
2021/06/07 08:12:23;;;;;;;7.57;3.80;;;;;;;22.36;56.85;101366.19;5053511;28;20029;-85
2021/06/07 08:14:49;;;;;;;4.53;3.47;;;;;;;21.74;60.15;101373.38;5054798;28;20024;-85
2021/06/07 08:17:16;;;;;;;19.90;4.68;;;;;;;21.72;60.73;101370.88;5054068;28;20107;-85
2021/06/07 08:19:42;;;;;;;14.25;4.70;;;;;;;21.37;61.90;101369.00;5053878;28;20115;-84
2021/06/07 08:22:08;;;;;;;5.13;3.20;;;;;;;21.45;62.24;101369.09;5053897;28;20036;-84
2021/06/07 08:24:34;;;;;;;6.57;3.15;;;;;;;21.65;61.38;101374.31;5053596;28;20098;-85
2021/06/07 08:26:59;;;;;;;10.82;3.75;;;;;;;21.52;62.43;101372.00;5052943;28;20028;-84
2021/06/07 08:29:25;;;;;;;13.60;3.97;;;;;;;21.45;62.28;101378.97;5053901;28;20103;-84
2021/06/07 08:31:50;;;;;;;6.97;4.00;;;;;;;21.17;63.09;101381.66;5053636;28;20116;-83
2021/06/07 08:34:16;;;;;;;7.60;4.35;;;;;;;21.23;63.25;101390.88;5053843;28;20032;-83
2021/06/07 08:36:41;;;;;;;6.07;4.18;;;;;;;21.11;64.27;101387.56;5053430;28;20044;-84
2021/06/07 08:39:09;;;;;;;16.15;5.45;;;;;;;20.74;66.70;101389.28;5061031;28;20033;-83
2021/06/07 08:41:35;;;;;;;7.47;3.92;;;;;;;21.06;64.58;101392.53;5073791;28;20039;-83
2021/06/07 08:44:00;;;;;;;7.25;4.63;;;;;;;21.03;65.49;101388.31;5059469;28;20104;-85
2021/06/07 08:46:25;;;;;;;6.13;4.65;;;;;;;20.81;66.25;101394.88;5062039;28;20393;-83
2021/06/07 08:48:51;;;;;;;7.97;3.53;;;;;;;20.98;66.15;101388.75;5063783;28;20028;-83
2021/06/07 08:51:16;;;;;;;3.78;3.13;;;;;;;21.05;66.21;101390.81;5073473;28;20107;-84
2021/06/07 08:53:42;;;;;;;5.07;3.55;;;;;;;21.08;64.82;101387.88;5063986;28;20025;-83
2021/06/07 08:56:07;;;;;;;5.43;3.92;;;;;;;21.10;65.37;101385.88;5052900;28;20052;-83
2021/06/07 08:58:32;;;;;;;8.77;4.22;;;;;;;21.07;65.49;101387.03;5065687;28;20024;-83
2021/06/07 09:00:59;;;;;;;4.43;3.42;;;;;;;21.15;65.30;101381.78;5056602;28;20029;-83
2021/06/07 09:03:30;;;;;;;5.20;3.50;;;;;;;21.08;65.11;101377.19;5053230;28;20025;-83
2021/06/07 09:05:58;;;;;;;3.92;2.90;;;;;;;21.03;64.88;101379.47;5053909;28;20115;-83
2021/06/07 09:08:33;;;;;;;3.80;2.55;;;;;;;21.32;64.49;101379.28;5053180;28;20066;-83
2021/06/07 09:11:11;;;;;;;4.63;2.78;;;;;;;21.57;61.43;101373.22;5053148;28;20025;-84
2021/06/07 09:13:38;;;;;;;2.80;2.28;;;;;;;21.48;62.89;101373.31;5053144;28;20025;-84
2021/06/07 09:16:04;;;;;;;6.30;2.78;;;;;;;21.50;63.43;101382.00;5061796;28;20074;-83
2021/06/07 09:18:34;;;;;;;4.60;2.53;;;;;;;21.67;63.19;101378.50;5052823;28;20049;-83
2021/06/07 09:21:04;;;;;;;4.60;2.45;;;;;;;21.62;62.60;101378.09;5052763;28;20089;-83
2021/06/07 09:23:54;;;;;;;3.97;2.72;;;;;;;21.54;63.44;101376.22;5051834;28;20443;-83
2021/06/07 09:26:25;;;;;;;3.60;2.83;;;;;;;21.75;63.86;101375.06;5053002;28;20544;-84
2021/06/07 09:28:51;;;;;;;4.32;2.63;;;;;;;21.44;64.35;101377.25;5052873;28;20017;-83
2021/06/07 09:31:16;;;;;;;4.53;2.35;;;;;;;21.54;63.47;101386.03;5054038;28;20031;-83
2021/06/07 09:33:49;;;;;;;3.92;2.25;;;;;;;21.64;63.52;101378.78;5068303;28;20020;-83
2021/06/07 09:36:27;;;;;;;6.80;2.85;;;;;;;21.63;63.71;101377.13;5070672;28;20028;-83
2021/06/07 09:39:05;;;;;;;6.22;3.00;;;;;;;21.53;64.45;101381.72;5052490;28;20032;-83
2021/06/07 09:41:53;;;;;;;4.03;2.22;;;;;;;21.76;62.98;101390.09;5052602;28;20029;-83
2021/06/07 09:44:41;;;;;;;5.40;2.65;;;;;;;21.71;62.76;101389.72;5059958;28;20128;-83
2021/06/07 09:47:14;;;;;;;4.25;2.15;;;;;;;21.53;63.03;101397.75;5070940;28;20382;-85
2021/06/07 09:49:46;;;;;;;6.15;2.30;;;;;;;21.48;64.13;101392.00;5056086;28;20025;-82
2021/06/07 09:52:22;;;;;;;5.35;2.20;;;;;;;21.62;62.64;101406.66;5052178;28;20082;-82
2021/06/07 09:55:23;;;;;;;3.65;2.25;;;;;;;21.22;64.01;101400.72;5052468;28;20100;-82
2021/06/07 09:58:01;;;;;;;3.58;2.30;;;;;;;21.29;64.42;101407.16;5052347;28;20044;-82
2021/06/07 10:00:43;;;;;;;3.67;1.98;;;;;;;21.58;63.01;101412.34;5051922;28;20025;-82
2021/06/07 10:03:41;;;;;;;14.10;3.17;;;;;;;21.56;63.22;101411.66;5053372;28;20032;-82
2021/06/07 10:06:20;;;;;;;7.65;3.30;;;;;;;21.56;63.55;101408.13;5053241;28;20509;-84
2021/06/07 10:09:00;;;;;;;4.57;2.47;;;;;;;21.73;62.75;101414.47;5052195;28;20029;-82
2021/06/07 10:11:26;;;;;;;7.47;2.75;;;;;;;21.79;62.69;101409.34;5052215;28;20021;-82
2021/06/07 10:14:15;;;;;;;3.72;2.35;;;;;;;21.81;61.12;101406.53;5052185;28;20390;-84
2021/06/07 10:17:03;;;;;;;4.53;2.70;;;;;;;22.22;61.11;101409.53;5052094;28;20016;-82
2021/06/07 10:19:41;;;;;;;3.40;2.40;;;;;;;22.02;60.58;101406.22;5051274;28;20025;-82
2021/06/07 10:22:07;;;;;;;3.55;2.50;;;;;;;22.42;59.32;101394.16;5040330;28;20087;-82
2021/06/07 10:24:34;;;;;;;5.97;2.20;;;;;;;22.90;58.70;101402.59;5050179;28;20041;-82
2021/06/07 10:27:00;;;;;;;5.63;2.42;;;;;;;23.25;56.49;101400.75;5050939;28;20029;-82
2021/06/07 10:29:32;;;;;;;4.25;2.05;;;;;;;23.48;54.52;101408.97;5051538;28;20029;-82
2021/06/07 10:32:17;;;;;;;9.35;2.33;;;;;;;23.70;54.21;101403.00;5051799;28;20021;-82
2021/06/07 10:34:47;;;;;;;3.03;2.20;;;;;;;24.30;52.15;101409.03;5051462;28;20379;-83
2021/06/07 10:37:14;;;;;;;5.07;2.20;;;;;;;24.67;52.00;101396.91;5033003;28;20037;-82
2021/06/07 10:39:39;;;;;;;5.18;2.17;;;;;;;24.92;51.19;101398.50;5040299;28;20032;-83
2021/06/07 10:42:07;;;;;;;3.90;1.77;;;;;;;25.08;51.07;101399.41;5051654;28;20021;-82
2021/06/07 10:44:39;;;;;;;3.53;2.10;;;;;;;25.19;49.54;101390.97;5033871;28;20505;-82
2021/06/07 10:47:08;;;;;;;2.17;1.30;;;;;;;25.24;47.84;101393.19;5051551;28;20060;-82
2021/06/07 10:49:40;;;;;;;2.80;1.55;;;;;;;25.56;47.62;101392.13;5051317;28;20028;-82
2021/06/07 10:52:20;;;;;;;2.55;1.58;;;;;;;25.82;46.21;101383.69;5051617;28;20617;-83
2021/06/07 10:55:13;;;;;;;3.38;1.45;;;;;;;25.98;47.05;101388.09;5054303;28;20044;-83
2021/06/07 10:57:47;;;;;;;3.95;1.88;;;;;;;26.64;44.60;101390.16;5046943;28;20033;-83
2021/06/07 11:00:23;;;;;;;3.70;2.10;;;;;;;26.85;44.14;101394.78;5050532;28;20044;-83
2021/06/07 11:03:00;;;;;;;4.80;2.25;;;;;;;26.45;44.42;101386.16;5066645;28;20029;-83
2021/06/07 11:05:32;;;;;;;3.10;2.28;;;;;;;26.85;44.22;101392.94;5071548;28;20031;-83
2021/06/07 11:08:07;;;;;;;1.92;1.65;;;;;;;27.58;42.39;101374.06;5071616;28;20045;-83
2021/06/07 11:10:44;;;;;;;2.65;1.75;;;;;;;28.35;41.41;101368.88;5071421;28;20020;-83
2021/06/07 11:13:18;;;;;;;6.88;2.47;;;;;;;28.72;39.84;101364.94;5065069;28;20029;-83
2021/06/07 11:16:03;;;;;;;3.63;1.70;;;;;;;28.98;38.99;101366.09;5051372;28;20025;-83
2021/06/07 11:18:31;;;;;;;2.03;1.10;;;;;;;28.06;40.04;101366.22;5070847;28;20360;-84
2021/06/07 11:21:30;;;;;;;2.22;1.75;;;;;;;27.55;41.59;101366.38;5061137;28;20021;-83
2021/06/07 11:23:55;;;;;;;14.55;3.35;;;;;;;27.58;41.83;101374.06;5050072;28;20033;-83
2021/06/07 11:26:34;;;;;;;40.08;3.65;;;;;;;27.52;42.75;101369.44;5051972;28;20025;-83
2021/06/07 11:29:00;;;;;;;1.73;1.50;;;;;;;28.56;40.79;101360.72;5050432;28;20025;-83